createdAt,value
2022-10-21T00:03:10.562Z,102347.19
2022-10-21T00:08:10.685Z,102269.09
2022-10-21T00:13:12.027Z,102326.47
2022-10-21T00:18:09.602Z,102263.63
2022-10-21T00:23:10.035Z,102337.16
2022-10-21T00:28:07.731Z,102344.06
2022-10-21T00:33:06.531Z,102343.03
2022-10-21T00:38:03.717Z,102289.31
2022-10-21T00:43:07.321Z,102311.69
2022-10-21T00:48:12.060Z,102223.75
2022-10-21T01:52:14.509Z,102311.91
2022-10-21T01:57:15.407Z,102311.22
2022-10-21T02:02:15.471Z,102326.69
2022-10-21T02:07:43.576Z,102251.47
2022-10-21T02:12:45.106Z,102288.69
2022-10-21T02:17:46.843Z,102351.88
2022-10-21T02:22:48.132Z,102332.09
2022-10-21T02:27:45.390Z,102348.53
2022-10-21T02:32:48.325Z,102326.50
2022-10-21T02:37:54.017Z,102338.66
2022-10-21T02:42:57.506Z,102368.34
2022-10-21T02:47:54.601Z,102366.03
2022-10-21T02:52:52.304Z,102357.56
2022-10-21T02:57:49.565Z,102326.69
2022-10-21T03:02:46.600Z,102308.53
2022-10-21T03:07:48.113Z,102267.00
2022-10-21T03:12:46.003Z,102346.69
2022-10-21T03:17:42.929Z,102279.41
2022-10-21T03:22:40.047Z,102324.38
2022-10-21T03:27:36.886Z,102360.03
2022-10-21T03:32:34.795Z,102372.16
2022-10-21T03:37:32.164Z,102350.59
2022-10-21T03:42:29.311Z,102321.38
2022-10-21T03:47:29.773Z,102375.97
2022-10-21T03:52:32.688Z,102366.38
2022-10-21T03:57:37.670Z,102345.00
2022-10-21T04:02:38.929Z,102215.28
2022-10-21T04:07:37.544Z,102323.41
2022-10-21T04:12:34.489Z,102324.41
2022-10-21T04:17:37.696Z,102276.94
2022-10-21T04:22:44.881Z,102309.09
2022-10-21T04:27:46.429Z,102328.25
2022-10-21T04:33:06.938Z,102357.88
2022-10-21T04:38:09.663Z,102327.56
2022-10-21T04:43:15.748Z,102300.84
2022-10-21T04:48:13.243Z,102357.13
2022-10-21T04:53:12.048Z,102317.50
2022-10-21T04:58:09.453Z,102252.69
2022-10-21T05:03:12.893Z,102341.84
2022-10-21T05:08:24.606Z,102311.66
2022-10-21T05:13:22.759Z,102267.63
2022-10-21T05:18:22.703Z,102349.84
2022-10-21T05:23:20.473Z,102321.16
2022-10-21T05:28:20.815Z,102346.22
2022-10-21T05:33:20.273Z,102325.38
2022-10-21T05:38:28.296Z,102295.94
2022-10-21T05:43:27.388Z,102386.78
2022-10-21T05:48:29.434Z,102387.56
2022-10-21T05:53:54.963Z,102392.69
2022-10-21T05:59:01.988Z,102370.16
2022-10-21T06:04:00.093Z,102292.13
2022-10-21T06:09:01.059Z,102370.72
2022-10-21T06:14:00.299Z,102370.63
2022-10-21T06:18:58.510Z,102404.28
2022-10-21T06:23:58.785Z,102300.28
2022-10-21T06:28:59.330Z,102308.75
2022-10-21T06:33:56.466Z,102403.59
2022-10-21T06:38:55.170Z,102384.47
2022-10-21T06:43:52.235Z,102370.28
2022-10-21T06:48:50.099Z,102381.84
2022-10-21T06:53:58.686Z,102361.53
2022-10-21T06:58:57.419Z,102366.34
2022-10-21T07:03:55.503Z,102387.56
2022-10-21T07:08:59.717Z,102348.09
2022-10-21T07:14:00.909Z,102385.00
2022-10-21T07:19:00.935Z,102315.38
2022-10-21T07:23:59.799Z,102372.13
2022-10-21T07:29:02.245Z,102356.94
2022-10-21T07:34:00.910Z,102334.84
2022-10-21T07:39:01.803Z,102363.06
2022-10-21T07:44:37.091Z,102380.09
2022-10-21T07:49:34.953Z,102257.06
2022-10-21T07:55:19.974Z,102277.13
2022-10-21T08:00:20.204Z,102328.47
2022-10-21T08:05:19.784Z,102235.72
2022-10-21T08:10:21.175Z,102319.94
2022-10-21T08:15:18.783Z,102301.06
2022-10-21T08:20:36.277Z,102304.88
2022-10-21T08:25:43.924Z,102301.69
2022-10-21T08:30:50.164Z,102345.28
2022-10-21T08:35:48.139Z,102227.75
2022-10-21T08:41:23.697Z,102340.91
2022-10-21T08:46:35.835Z,102329.91
2022-10-21T08:51:41.633Z,102296.44
2022-10-21T08:56:59.080Z,102282.97
2022-10-21T09:02:23.681Z,102332.41
2022-10-21T09:07:26.364Z,102335.00
2022-10-21T09:12:29.638Z,102337.13
2022-10-21T09:17:57.461Z,102300.66
2022-10-21T09:23:29.457Z,102314.56
2022-10-21T09:34:27.140Z,102310.44
2022-10-21T09:39:34.213Z,102308.00
2022-10-21T09:44:34.319Z,102272.94
2022-10-21T09:50:02.176Z,102209.50
2022-10-21T09:54:59.410Z,102263.72
2022-10-21T09:59:59.467Z,102259.34
2022-10-21T10:04:57.624Z,102244.47
2022-10-21T10:09:57.588Z,102236.94
2022-10-21T10:14:55.808Z,102255.63
2022-10-21T10:20:15.577Z,102190.16
2022-10-21T10:25:29.366Z,102152.41
2022-10-21T10:30:41.888Z,102121.47
2022-10-21T10:35:46.155Z,102121.50
2022-10-21T10:40:47.931Z,102212.19
2022-10-21T10:45:55.381Z,102092.56
2022-10-21T10:50:52.819Z,102145.59
2022-10-21T10:55:59.561Z,102204.75
2022-10-21T11:01:00.984Z,102193.69
2022-10-21T11:06:10.278Z,102193.19
2022-10-21T11:11:17.113Z,102161.31
2022-10-21T11:16:29.485Z,102121.09
2022-10-21T11:21:42.674Z,102154.66
2022-10-21T11:26:50.852Z,102118.59
2022-10-21T11:32:11.210Z,102177.88
2022-10-21T11:37:26.296Z,102108.75
2022-10-21T11:42:33.315Z,102160.34
2022-10-21T11:47:42.928Z,102097.09
2022-10-21T11:52:52.120Z,102145.19
2022-10-21T11:57:56.900Z,102119.13
2022-10-21T12:03:14.701Z,102095.09
2022-10-21T12:08:15.327Z,102125.97
2022-10-21T12:13:20.213Z,102130.44
2022-10-21T12:18:21.324Z,102081.44
2022-10-21T12:23:22.431Z,102107.25
2022-10-21T12:28:29.669Z,102019.31
2022-10-21T12:33:37.267Z,102075.78
2022-10-21T12:38:50.473Z,102075.81
2022-10-21T12:43:53.481Z,102012.75
2022-10-21T12:48:52.434Z,102062.38
2022-10-21T12:58:57.688Z,102027.22
2022-10-21T13:03:56.766Z,102086.72
2022-10-21T13:08:56.177Z,102062.47
2022-10-21T13:14:35.047Z,101995.03
2022-10-21T13:19:44.860Z,102017.47
2022-10-21T13:24:47.216Z,102072.13
2022-10-21T13:30:07.163Z,102027.97
2022-10-21T13:35:30.075Z,102018.34
2022-10-21T13:40:37.790Z,102068.19
2022-10-21T13:45:49.330Z,102055.31
2022-10-21T13:50:52.727Z,102069.13
2022-10-21T13:56:01.561Z,102067.66
2022-10-21T14:01:08.344Z,102063.38
2022-10-21T14:06:15.585Z,102019.22
2022-10-21T14:11:18.159Z,102032.50
2022-10-21T14:16:22.092Z,102006.75
2022-10-21T14:21:23.796Z,102003.75
2022-10-21T14:32:34.213Z,102013.50
2022-10-21T14:37:54.622Z,102044.38
2022-10-21T14:42:59.759Z,101990.16
2022-10-21T14:48:07.377Z,102045.03
2022-10-21T14:53:33.039Z,101999.22
2022-10-21T14:58:38.969Z,101968.06
2022-10-21T15:03:40.948Z,101982.41
2022-10-21T15:08:47.189Z,102026.50
2022-10-21T15:14:04.713Z,102066.16
2022-10-21T15:19:10.888Z,101971.00
2022-10-21T15:24:20.621Z,102012.03
2022-10-21T15:29:31.128Z,102011.56
2022-10-21T15:35:12.895Z,101967.75
2022-10-21T15:40:45.946Z,102059.03
2022-10-21T15:45:45.088Z,102041.69
2022-10-21T15:50:44.448Z,101984.53
2022-10-21T15:55:42.960Z,102074.53
2022-10-21T16:01:04.659Z,102094.31
2022-10-21T16:06:02.298Z,101981.53
2022-10-21T16:11:00.375Z,101993.22
2022-10-21T16:16:39.080Z,102095.06
2022-10-21T16:21:53.815Z,102078.28
2022-10-21T16:26:54.846Z,102060.59
2022-10-21T16:37:49.203Z,102110.41
2022-10-21T16:42:49.850Z,101990.22
2022-10-21T16:47:55.198Z,102052.91
2022-10-21T16:52:54.527Z,102005.75
2022-10-21T17:03:44.535Z,102087.34
2022-10-21T17:09:13.297Z,102030.69
2022-10-21T17:14:30.570Z,101954.56
2022-10-21T17:20:01.357Z,102096.38
2022-10-21T17:24:59.215Z,102086.09
2022-10-21T17:30:00.424Z,102058.38
2022-10-21T17:34:59.287Z,102029.94
2022-10-21T17:40:07.403Z,102066.53
2022-10-21T17:45:17.301Z,102079.72
2022-10-21T17:55:58.725Z,101964.56
2022-10-21T18:00:57.153Z,101977.03
2022-10-21T18:06:00.487Z,102098.13
2022-10-21T18:10:58.784Z,102059.94
2022-10-21T18:16:02.522Z,102049.16
2022-10-21T18:21:08.021Z,101976.44
2022-10-21T18:26:13.777Z,102031.91
2022-10-21T18:31:12.758Z,102051.84
2022-10-21T18:36:12.156Z,102093.63
2022-10-21T18:41:26.037Z,102087.34
2022-10-21T18:46:34.049Z,102102.25
2022-10-21T18:51:46.010Z,102072.47
2022-10-21T18:56:44.419Z,102070.16
2022-10-21T19:01:54.675Z,102032.09
2022-10-21T19:06:51.962Z,102000.50
2022-10-21T19:12:07.745Z,102050.94
2022-10-21T19:17:09.451Z,102073.97
2022-10-21T19:22:12.229Z,102122.53
2022-10-21T19:27:14.247Z,102067.72
2022-10-21T19:32:18.915Z,102078.34
2022-10-21T19:37:16.082Z,102083.59
2022-10-21T19:42:29.675Z,101985.69
2022-10-21T19:47:28.982Z,102082.31
2022-10-21T19:52:44.735Z,102084.19
2022-10-21T19:57:41.876Z,102104.72
2022-10-21T20:02:43.285Z,102051.19
2022-10-21T20:07:40.965Z,102054.56
2022-10-21T20:12:38.658Z,102092.19
2022-10-21T20:17:35.947Z,101976.41
2022-10-21T20:22:33.798Z,102044.75
2022-10-21T20:27:49.091Z,102072.59
2022-10-21T20:32:52.418Z,102045.50
2022-10-21T20:37:50.310Z,102060.91
2022-10-21T20:42:49.851Z,102090.06
2022-10-21T20:47:50.149Z,101966.03
2022-10-21T20:52:53.150Z,101975.16
2022-10-21T20:58:41.052Z,101968.38
2022-10-21T21:03:37.966Z,102066.16
2022-10-21T21:08:35.932Z,102029.81
2022-10-21T21:13:43.372Z,101981.53
2022-10-21T21:19:17.898Z,102037.97
2022-10-21T21:24:19.053Z,102005.34
2022-10-21T21:29:17.900Z,101969.19
2022-10-21T21:34:21.373Z,101917.84
2022-10-21T21:39:18.459Z,102041.72
2022-10-21T21:44:16.864Z,102049.91
2022-10-21T21:49:25.780Z,102049.50
2022-10-21T21:54:23.366Z,102020.72
2022-10-21T21:59:23.588Z,102018.31
2022-10-21T22:04:28.921Z,102017.59
2022-10-21T22:09:45.771Z,102020.84
2022-10-21T22:14:53.647Z,101967.06
2022-10-21T22:19:53.785Z,102014.59
2022-10-21T22:25:03.190Z,102040.44
2022-10-21T22:30:07.274Z,102001.78
2022-10-21T22:35:08.922Z,101926.31
2022-10-21T22:40:07.109Z,101908.44
2022-10-21T22:45:06.614Z,102016.75
2022-10-21T22:50:03.831Z,101956.75
2022-10-21T22:55:10.392Z,101998.16
2022-10-21T23:00:09.274Z,101966.72
2022-10-21T23:05:06.570Z,101958.28
2022-10-21T23:10:04.114Z,101928.19
2022-10-21T23:15:01.313Z,101919.91
2022-10-21T23:20:19.230Z,101952.47
2022-10-21T23:25:16.747Z,101926.03
2022-10-21T23:30:14.144Z,102008.66
2022-10-21T23:35:12.253Z,101993.97
2022-10-21T23:40:13.546Z,101959.91
2022-10-21T23:45:11.963Z,102016.44
2022-10-21T23:50:10.304Z,102019.09
2022-10-21T23:55:09.756Z,102014.81
